createdAt,value
2022-10-09T00:00:49.847Z,68.10
2022-10-09T00:03:17.708Z,70.00
2022-10-09T00:05:45.130Z,71.80
2022-10-09T00:08:11.667Z,72.40
2022-10-09T00:10:44.179Z,72.10
2022-10-09T00:13:11.305Z,71.80
2022-10-09T00:15:41.635Z,71.90
2022-10-09T00:18:09.346Z,74.00
2022-10-09T00:20:37.052Z,73.90
2022-10-09T00:23:03.564Z,72.90
2022-10-09T00:25:30.100Z,71.50
2022-10-09T00:27:57.391Z,71.40
2022-10-09T00:30:23.910Z,71.60
2022-10-09T00:32:50.642Z,72.00
2022-10-09T00:35:17.374Z,75.50
2022-10-09T00:37:43.938Z,76.50
2022-10-09T00:40:10.556Z,76.50
2022-10-09T00:42:37.061Z,76.50
2022-10-09T00:45:04.196Z,76.50
2022-10-09T00:47:38.302Z,75.90
2022-10-09T00:50:24.840Z,75.20
2022-10-09T00:52:57.549Z,74.20
2022-10-09T00:55:24.695Z,72.30
2022-10-09T00:57:51.736Z,70.70
2022-10-09T01:00:18.447Z,69.70
2022-10-09T01:02:45.000Z,69.60
2022-10-09T01:05:11.736Z,69.20
2022-10-09T01:07:58.540Z,69.50
2022-10-09T01:10:30.091Z,69.40
2022-10-09T01:12:59.676Z,69.10
2022-10-09T01:15:40.630Z,68.80
2022-10-09T01:18:22.468Z,68.90
2022-10-09T01:20:51.398Z,68.20
2022-10-09T01:23:34.820Z,67.60
2022-10-09T01:26:16.398Z,67.60
2022-10-09T01:28:44.897Z,67.50
2022-10-09T01:31:12.220Z,67.50
2022-10-09T01:33:39.316Z,67.50
2022-10-09T01:36:07.311Z,67.50
2022-10-09T01:38:34.679Z,67.50
2022-10-09T01:41:02.973Z,67.50
2022-10-09T01:43:29.523Z,68.90
2022-10-09T01:46:16.012Z,69.20
2022-10-09T01:48:42.731Z,69.30
2022-10-09T01:51:09.290Z,68.70
2022-10-09T01:53:36.459Z,68.70
2022-10-09T01:56:07.464Z,68.50
2022-10-09T01:58:54.240Z,68.50
2022-10-09T02:01:29.135Z,68.00
2022-10-09T02:03:56.968Z,68.40
2022-10-09T02:06:23.737Z,69.40
2022-10-09T02:08:51.748Z,69.40
2022-10-09T02:11:18.402Z,68.60
2022-10-09T02:13:46.705Z,68.70
2022-10-09T02:16:16.307Z,67.90
2022-10-09T02:18:45.411Z,67.20
2022-10-09T02:21:16.357Z,67.20
2022-10-09T02:23:44.017Z,67.10
2022-10-09T02:26:11.433Z,67.10
2022-10-09T02:28:40.463Z,67.10
2022-10-09T02:31:13.439Z,67.10
2022-10-09T02:33:40.008Z,68.00
2022-10-09T02:36:06.659Z,68.10
2022-10-09T02:38:33.231Z,68.60
2022-10-09T02:41:00.532Z,68.40
2022-10-09T02:43:27.464Z,69.00
2022-10-09T02:45:53.981Z,69.70
2022-10-09T02:48:21.270Z,70.90
2022-10-09T02:50:47.890Z,71.60
2022-10-09T02:53:14.554Z,71.30
2022-10-09T02:55:41.687Z,69.90
2022-10-09T02:58:08.284Z,69.20
2022-10-09T03:00:34.815Z,68.40
2022-10-09T03:03:01.390Z,67.90
2022-10-09T03:05:27.944Z,66.90
2022-10-09T03:07:54.477Z,68.00
2022-10-09T03:10:21.271Z,68.40
2022-10-09T03:12:48.524Z,68.10
2022-10-09T03:15:15.456Z,68.40
2022-10-09T03:17:42.134Z,67.80
2022-10-09T03:20:09.021Z,66.80
2022-10-09T03:22:35.558Z,66.70
2022-10-09T03:25:02.130Z,66.50
2022-10-09T03:27:30.695Z,68.90
2022-10-09T03:29:58.498Z,69.60
2022-10-09T03:32:25.420Z,69.40
2022-10-09T03:34:51.976Z,69.50
2022-10-09T03:37:18.570Z,68.70
2022-10-09T03:39:45.111Z,66.70
2022-10-09T03:42:11.639Z,66.50
2022-10-09T03:44:38.196Z,66.50
2022-10-09T03:47:04.768Z,66.50
2022-10-09T03:49:31.286Z,66.50
2022-10-09T03:51:57.810Z,66.40
2022-10-09T03:54:24.329Z,66.40
2022-10-09T03:56:50.850Z,66.50
2022-10-09T03:59:17.378Z,67.60
2022-10-09T04:01:43.898Z,69.90
2022-10-09T04:04:10.389Z,69.80
2022-10-09T04:06:36.911Z,69.50
2022-10-09T04:09:03.621Z,68.30
2022-10-09T04:11:30.157Z,68.40
2022-10-09T04:13:56.672Z,66.40
2022-10-09T04:16:23.219Z,66.40
2022-10-09T04:18:49.850Z,66.70
2022-10-09T04:21:16.414Z,69.50
2022-10-09T04:23:42.921Z,72.30
2022-10-09T04:26:10.705Z,73.40
2022-10-09T04:28:37.332Z,72.80
2022-10-09T04:31:04.160Z,72.20
2022-10-09T04:33:30.722Z,71.20
2022-10-09T04:35:57.566Z,70.50
2022-10-09T04:38:24.834Z,69.90
2022-10-09T04:40:58.475Z,70.50
2022-10-09T04:43:25.223Z,71.20
2022-10-09T04:45:51.889Z,72.60
2022-10-09T04:48:18.719Z,73.60
2022-10-09T04:50:45.397Z,74.70
2022-10-09T04:53:11.988Z,74.70
2022-10-09T04:55:39.632Z,74.70
2022-10-09T04:58:06.399Z,73.70
2022-10-09T05:00:32.930Z,72.50
2022-10-09T05:02:59.537Z,71.10
2022-10-09T05:05:26.110Z,70.40
2022-10-09T05:07:52.636Z,70.00
2022-10-09T05:10:19.187Z,69.50
2022-10-09T05:12:45.940Z,70.70
2022-10-09T05:15:13.180Z,71.40
2022-10-09T05:17:39.898Z,72.20
2022-10-09T05:20:06.856Z,72.30
2022-10-09T05:22:33.402Z,72.00
2022-10-09T05:24:59.929Z,71.60
2022-10-09T05:27:26.431Z,70.60
2022-10-09T05:29:53.034Z,70.40
2022-10-09T05:32:19.560Z,71.10
2022-10-09T05:34:46.178Z,72.20
2022-10-09T05:37:12.779Z,73.00
2022-10-09T05:39:39.473Z,74.60
2022-10-09T05:42:05.989Z,74.60
2022-10-09T05:44:32.597Z,75.20
2022-10-09T05:46:59.127Z,75.20
2022-10-09T05:49:25.733Z,74.60
2022-10-09T05:51:52.272Z,75.10
2022-10-09T05:54:18.829Z,75.50
2022-10-09T05:56:45.423Z,75.90
2022-10-09T05:59:14.868Z,75.60
2022-10-09T06:01:43.193Z,75.80
2022-10-09T06:04:13.970Z,74.80
2022-10-09T06:06:41.260Z,74.80
2022-10-09T06:09:08.832Z,74.90
2022-10-09T06:11:36.249Z,73.20
2022-10-09T06:14:03.966Z,72.30
2022-10-09T06:16:31.442Z,70.90
2022-10-09T06:18:58.330Z,70.60
2022-10-09T06:21:26.390Z,70.10
2022-10-09T06:23:54.452Z,67.80
2022-10-09T06:26:21.865Z,65.30
2022-10-09T06:28:48.817Z,61.60
2022-10-09T06:31:19.350Z,58.70
2022-10-09T06:33:46.646Z,56.40
2022-10-09T06:36:14.711Z,52.90
2022-10-09T06:38:41.777Z,49.30
2022-10-09T06:41:09.954Z,44.30
2022-10-09T06:43:36.926Z,42.10
2022-10-09T06:46:05.156Z,41.20
2022-10-09T06:48:32.630Z,39.10
2022-10-09T06:51:02.253Z,34.40
2022-10-09T06:53:29.311Z,31.70
2022-10-09T06:55:57.222Z,29.70
2022-10-09T06:58:24.056Z,28.50
2022-10-09T07:00:50.615Z,27.60
2022-10-09T07:03:17.162Z,23.90
2022-10-09T07:05:43.699Z,20.20
2022-10-09T07:08:10.250Z,20.30
2022-10-09T07:10:36.763Z,19.00
2022-10-09T07:13:03.298Z,12.10
2022-10-09T07:15:29.927Z,11.70
2022-10-09T07:17:56.491Z,10.40
2022-10-09T07:20:23.093Z,9.70
2022-10-09T07:22:49.910Z,8.80
2022-10-09T07:25:16.785Z,3.70
2022-10-09T07:27:43.301Z,7.80
2022-10-09T07:30:10.038Z,3.00
2022-10-09T07:32:36.578Z,3.10
2022-10-09T07:35:03.189Z,1.70
2022-10-09T07:37:29.766Z,1.00
2022-10-09T07:39:56.276Z,1.00
2022-10-09T07:42:22.799Z,1.00
2022-10-09T07:44:49.310Z,1.00
2022-10-09T07:47:15.849Z,1.00
2022-10-09T07:49:42.422Z,1.00
2022-10-09T07:52:08.962Z,1.00
2022-10-09T07:54:35.481Z,1.00
2022-10-09T07:57:02.230Z,1.00
2022-10-09T07:59:28.762Z,1.00
2022-10-09T08:01:55.315Z,1.00
2022-10-09T08:04:21.917Z,1.00
2022-10-09T08:06:49.526Z,1.00
2022-10-09T08:09:17.726Z,1.00
2022-10-09T08:11:44.520Z,1.00
2022-10-09T08:14:16.591Z,1.00
2022-10-09T08:16:45.506Z,1.00
2022-10-09T08:19:12.037Z,1.00
2022-10-09T08:21:38.585Z,1.00
2022-10-09T08:24:05.289Z,1.00
2022-10-09T08:26:31.931Z,1.00
2022-10-09T08:28:59.755Z,1.00
2022-10-09T08:31:26.790Z,1.00
2022-10-09T08:33:57.084Z,1.00
2022-10-09T08:36:23.983Z,1.00
2022-10-09T08:38:50.981Z,1.00
2022-10-09T08:41:32.530Z,1.00
2022-10-09T08:44:03.473Z,1.00
2022-10-09T08:46:35.256Z,1.00
2022-10-09T08:49:03.488Z,1.00
2022-10-09T08:51:33.212Z,1.00
2022-10-09T08:54:06.481Z,1.00
2022-10-09T08:56:33.153Z,1.00
2022-10-09T08:59:01.757Z,1.00
2022-10-09T09:01:37.513Z,1.00
2022-10-09T09:04:13.221Z,1.00
2022-10-09T09:06:47.741Z,1.00
2022-10-09T09:09:34.501Z,1.00
2022-10-09T09:12:05.034Z,1.00
2022-10-09T09:14:31.534Z,1.00
2022-10-09T09:17:16.873Z,1.00
2022-10-09T09:20:08.902Z,1.00
2022-10-09T09:22:35.853Z,1.00
2022-10-09T09:25:13.475Z,1.00
2022-10-09T09:27:40.808Z,1.00
2022-10-09T09:30:14.779Z,1.00
2022-10-09T09:32:49.311Z,1.00
2022-10-09T09:35:28.295Z,1.00
2022-10-09T09:37:54.957Z,1.00
2022-10-09T09:40:36.170Z,1.00
2022-10-09T09:43:05.292Z,1.00
2022-10-09T09:45:31.933Z,1.00
2022-10-09T09:48:03.327Z,1.00
2022-10-09T09:50:48.723Z,1.00
2022-10-09T09:53:28.014Z,1.00
2022-10-09T09:55:55.337Z,1.00
2022-10-09T09:58:22.511Z,1.00
2022-10-09T10:00:56.910Z,1.00
2022-10-09T10:03:24.038Z,1.00
2022-10-09T10:05:50.657Z,1.00
2022-10-09T10:08:33.045Z,1.00
2022-10-09T10:11:00.859Z,1.00
2022-10-09T10:13:27.363Z,1.00
2022-10-09T10:15:55.112Z,1.00
2022-10-09T10:18:23.022Z,1.00
2022-10-09T10:20:51.639Z,1.00
2022-10-09T10:23:21.194Z,1.00
2022-10-09T10:25:47.706Z,1.00
2022-10-09T10:28:17.723Z,1.00
2022-10-09T10:30:44.437Z,1.00
2022-10-09T10:33:19.084Z,1.00
2022-10-09T10:35:45.633Z,1.00
2022-10-09T10:38:13.220Z,1.00
2022-10-09T10:40:46.390Z,1.00
2022-10-09T10:43:31.801Z,1.00
2022-10-09T10:46:02.155Z,1.00
2022-10-09T10:48:30.691Z,1.00
2022-10-09T10:50:57.196Z,1.00
2022-10-09T10:53:41.263Z,1.00
2022-10-09T10:56:19.014Z,1.00
2022-10-09T10:59:04.477Z,1.00
2022-10-09T11:01:31.250Z,1.00
2022-10-09T11:04:36.658Z,1.00
2022-10-09T11:07:21.005Z,1.00
2022-10-09T11:09:52.252Z,1.00
2022-10-09T11:12:47.694Z,1.00
2022-10-09T11:15:16.822Z,1.00
2022-10-09T11:17:58.194Z,1.00
2022-10-09T11:20:36.721Z,1.00
2022-10-09T11:23:09.202Z,1.00
2022-10-09T11:25:43.819Z,1.00
2022-10-09T11:28:24.395Z,1.00
2022-10-09T11:31:09.835Z,1.00
2022-10-09T11:33:45.316Z,1.00
2022-10-09T11:36:11.876Z,1.00
2022-10-09T11:38:42.456Z,1.00
2022-10-09T11:41:09.245Z,1.00
2022-10-09T11:43:41.012Z,1.00
2022-10-09T11:46:10.767Z,1.00
2022-10-09T11:48:56.188Z,1.00
2022-10-09T11:51:34.999Z,1.00
2022-10-09T11:54:03.454Z,1.00
2022-10-09T11:56:32.067Z,1.00
2022-10-09T11:59:03.282Z,1.00
2022-10-09T12:01:44.436Z,1.00
2022-10-09T12:04:14.188Z,1.00
2022-10-09T12:06:47.073Z,1.00
2022-10-09T12:09:22.153Z,1.00
2022-10-09T12:11:59.988Z,1.00
2022-10-09T12:14:29.205Z,1.00
2022-10-09T12:16:56.507Z,1.00
2022-10-09T12:19:23.436Z,1.00
2022-10-09T12:21:52.025Z,1.00
2022-10-09T12:24:23.773Z,1.00
2022-10-09T12:26:51.291Z,1.00
2022-10-09T12:29:21.556Z,1.00
2022-10-09T12:31:50.505Z,1.00
2022-10-09T12:34:22.850Z,1.00
2022-10-09T12:36:49.356Z,1.00
2022-10-09T12:39:20.754Z,1.00
2022-10-09T12:41:49.441Z,1.00
2022-10-09T12:44:24.840Z,1.00
2022-10-09T12:46:51.520Z,1.00
2022-10-09T12:49:24.265Z,1.00
2022-10-09T12:51:55.373Z,1.00
2022-10-09T12:54:24.986Z,1.00
2022-10-09T12:56:55.258Z,1.00
2022-10-09T12:59:22.739Z,1.00
2022-10-09T13:01:50.016Z,1.00
2022-10-09T13:04:25.654Z,1.00
2022-10-09T13:06:52.706Z,1.00
2022-10-09T13:09:24.587Z,1.00
2022-10-09T13:11:53.092Z,1.00
2022-10-09T13:14:28.170Z,1.00
2022-10-09T13:16:54.841Z,1.00
2022-10-09T13:19:29.311Z,1.00
2022-10-09T13:22:01.716Z,1.00
2022-10-09T13:24:29.547Z,1.00
2022-10-09T13:26:56.116Z,1.00
2022-10-09T13:29:22.690Z,1.00
2022-10-09T13:31:49.321Z,1.00
2022-10-09T13:34:16.398Z,1.00
2022-10-09T13:36:42.917Z,1.00
2022-10-09T13:39:15.734Z,1.00
2022-10-09T13:41:43.283Z,1.00
2022-10-09T13:44:09.896Z,1.00
2022-10-09T13:46:36.413Z,1.00
2022-10-09T13:49:03.058Z,1.00
2022-10-09T13:51:31.888Z,1.00
2022-10-09T13:53:58.441Z,1.00
2022-10-09T13:56:26.041Z,1.00
2022-10-09T13:58:52.575Z,1.00
2022-10-09T14:01:19.346Z,1.00
2022-10-09T14:03:46.015Z,1.00
2022-10-09T14:06:12.529Z,1.00
2022-10-09T14:08:39.110Z,1.00
2022-10-09T14:11:05.972Z,1.00
2022-10-09T14:13:32.718Z,1.00
2022-10-09T14:15:59.265Z,1.00
2022-10-09T14:18:26.014Z,1.00
2022-10-09T14:20:52.594Z,1.00
2022-10-09T14:23:19.245Z,1.00
2022-10-09T14:25:45.763Z,1.00
2022-10-09T14:28:12.366Z,1.00
2022-10-09T14:30:42.399Z,1.00
2022-10-09T14:33:09.182Z,1.00
2022-10-09T14:35:35.730Z,1.00
2022-10-09T14:38:02.241Z,1.00
2022-10-09T14:40:28.761Z,1.00
2022-10-09T14:42:55.274Z,1.00
2022-10-09T14:45:21.793Z,1.00
2022-10-09T14:47:48.308Z,1.00
2022-10-09T14:50:14.998Z,1.00
2022-10-09T14:52:42.186Z,1.00
2022-10-09T14:55:08.815Z,1.00
2022-10-09T14:57:35.872Z,1.00
2022-10-09T15:00:04.251Z,1.00
2022-10-09T15:02:30.874Z,1.00
2022-10-09T15:04:57.419Z,1.00
2022-10-09T15:07:24.541Z,1.00
2022-10-09T15:09:51.053Z,1.00
2022-10-09T15:12:17.575Z,1.00
2022-10-09T15:14:44.106Z,1.00
2022-10-09T15:17:10.644Z,1.00
2022-10-09T15:19:37.717Z,1.00
2022-10-09T15:22:04.586Z,1.00
2022-10-09T15:24:31.088Z,1.00
2022-10-09T15:26:57.666Z,1.00
2022-10-09T15:29:24.190Z,1.00
2022-10-09T15:31:51.585Z,1.00
2022-10-09T15:34:18.978Z,1.00
2022-10-09T15:36:46.148Z,1.00
2022-10-09T15:39:13.409Z,1.00
2022-10-09T15:41:40.885Z,1.00
2022-10-09T15:44:09.043Z,1.00
2022-10-09T15:46:35.590Z,1.00
2022-10-09T15:49:02.107Z,1.00
2022-10-09T15:51:29.972Z,1.00
2022-10-09T15:53:58.212Z,1.00
2022-10-09T15:56:25.085Z,1.00
2022-10-09T15:58:52.373Z,1.00
2022-10-09T16:01:19.396Z,1.00
2022-10-09T16:03:45.996Z,1.00
2022-10-09T16:06:14.660Z,1.00
2022-10-09T16:08:41.705Z,1.00
2022-10-09T16:11:09.896Z,1.00
2022-10-09T16:13:39.816Z,1.00
2022-10-09T16:16:07.361Z,1.00
2022-10-09T16:18:33.959Z,1.00
2022-10-09T16:21:12.128Z,1.00
2022-10-09T16:23:38.674Z,1.00
2022-10-09T16:26:05.323Z,1.00
2022-10-09T16:28:32.554Z,1.00
2022-10-09T16:30:59.406Z,1.00
2022-10-09T16:33:26.385Z,1.00
2022-10-09T16:35:52.961Z,1.00
2022-10-09T16:38:19.768Z,1.00
2022-10-09T16:41:03.139Z,1.00
2022-10-09T16:43:32.439Z,1.00
2022-10-09T16:46:08.075Z,1.00
2022-10-09T16:48:34.598Z,1.00
2022-10-09T16:51:01.106Z,1.00
2022-10-09T16:53:27.623Z,1.00
2022-10-09T16:55:54.162Z,1.00
2022-10-09T16:58:20.670Z,1.00
2022-10-09T17:00:47.267Z,1.00
2022-10-09T17:03:13.797Z,1.00
2022-10-09T17:05:40.309Z,1.00
2022-10-09T17:08:06.827Z,1.00
2022-10-09T17:10:33.378Z,1.00
2022-10-09T17:12:59.885Z,1.00
2022-10-09T17:15:26.393Z,1.00
2022-10-09T17:17:52.988Z,1.00
2022-10-09T17:20:19.601Z,1.00
2022-10-09T17:22:46.164Z,1.00
2022-10-09T17:25:14.025Z,1.00
2022-10-09T17:27:40.532Z,1.00
2022-10-09T17:30:07.511Z,1.00
2022-10-09T17:32:34.019Z,1.00
2022-10-09T17:35:00.547Z,3.10
2022-10-09T17:37:27.068Z,3.10
2022-10-09T17:39:53.643Z,3.40
2022-10-09T17:42:20.156Z,3.00
2022-10-09T17:44:48.382Z,3.00
2022-10-09T17:47:14.894Z,4.30
2022-10-09T17:49:41.474Z,6.30
2022-10-09T17:52:08.276Z,6.80
2022-10-09T17:54:34.845Z,7.80
2022-10-09T17:57:01.522Z,8.20
2022-10-09T17:59:28.153Z,9.20
2022-10-09T18:01:54.714Z,9.90
2022-10-09T18:04:21.645Z,11.40
2022-10-09T18:06:48.318Z,10.40
2022-10-09T18:09:15.242Z,10.80
2022-10-09T18:11:42.508Z,11.10
2022-10-09T18:14:09.775Z,9.60
2022-10-09T18:16:37.931Z,10.50
2022-10-09T18:19:11.392Z,10.20
2022-10-09T18:21:42.698Z,10.90
2022-10-09T18:24:09.258Z,10.70
2022-10-09T18:26:36.102Z,10.50
2022-10-09T18:29:02.748Z,11.70
2022-10-09T18:31:29.356Z,12.30
2022-10-09T18:33:56.840Z,12.20
2022-10-09T18:36:25.110Z,12.00
2022-10-09T18:38:53.424Z,10.20
2022-10-09T18:41:20.575Z,9.80
2022-10-09T18:43:47.891Z,11.40
2022-10-09T18:46:15.354Z,10.50
2022-10-09T18:48:42.564Z,10.80
2022-10-09T18:51:13.337Z,12.00
2022-10-09T18:53:40.511Z,11.20
2022-10-09T18:56:07.225Z,11.40
2022-10-09T18:58:34.696Z,11.40
2022-10-09T19:01:05.373Z,10.90
2022-10-09T19:03:33.887Z,9.70
2022-10-09T19:06:00.429Z,9.90
2022-10-09T19:08:27.438Z,9.60
2022-10-09T19:10:54.002Z,9.20
2022-10-09T19:13:20.692Z,9.00
2022-10-09T19:15:54.400Z,9.70
2022-10-09T19:18:21.514Z,8.60
2022-10-09T19:20:48.582Z,8.40
2022-10-09T19:23:15.742Z,9.60
2022-10-09T19:25:46.257Z,8.70
2022-10-09T19:28:13.154Z,8.60
2022-10-09T19:30:40.298Z,7.80
2022-10-09T19:33:06.874Z,8.70
2022-10-09T19:35:33.434Z,8.40
2022-10-09T19:38:02.387Z,9.70
2022-10-09T19:40:28.958Z,9.30
2022-10-09T19:42:55.578Z,7.80
2022-10-09T19:45:22.127Z,8.70
2022-10-09T19:47:53.518Z,7.70
2022-10-09T19:50:20.929Z,7.80
2022-10-09T19:52:47.526Z,9.60
2022-10-09T19:55:14.181Z,8.40
2022-10-09T19:57:40.701Z,8.10
2022-10-09T20:00:07.655Z,9.50
2022-10-09T20:02:34.249Z,9.70
2022-10-09T20:05:00.788Z,10.00
2022-10-09T20:07:27.322Z,8.00
2022-10-09T20:09:53.891Z,8.80
2022-10-09T20:12:20.467Z,8.80
2022-10-09T20:14:47.026Z,9.80
2022-10-09T20:17:13.565Z,11.40
2022-10-09T20:19:43.482Z,10.20
2022-10-09T20:22:12.171Z,10.80
2022-10-09T20:24:38.749Z,11.60
2022-10-09T20:27:05.274Z,10.00
2022-10-09T20:29:31.944Z,10.70
2022-10-09T20:31:58.523Z,11.00
2022-10-09T20:34:26.893Z,10.40
2022-10-09T20:36:53.526Z,11.50
2022-10-09T20:39:21.353Z,11.50
2022-10-09T20:41:48.419Z,11.50
2022-10-09T20:44:14.954Z,12.10
2022-10-09T20:46:41.943Z,13.20
2022-10-09T20:49:11.071Z,14.20
2022-10-09T20:51:38.435Z,15.00
2022-10-09T20:54:05.466Z,15.70
2022-10-09T20:56:32.572Z,16.20
2022-10-09T20:58:59.865Z,17.70
2022-10-09T21:01:28.164Z,17.00
2022-10-09T21:03:58.925Z,17.40
2022-10-09T21:06:26.139Z,17.80
2022-10-09T21:08:52.718Z,19.90
2022-10-09T21:11:19.776Z,19.60
2022-10-09T21:13:46.762Z,18.80
2022-10-09T21:16:15.378Z,19.20
2022-10-09T21:18:42.177Z,20.20
2022-10-09T21:21:10.396Z,20.40
2022-10-09T21:23:37.275Z,20.40
2022-10-09T21:26:03.941Z,20.40
2022-10-09T21:28:31.029Z,20.90
2022-10-09T21:30:57.658Z,22.00
2022-10-09T21:33:24.202Z,22.80
2022-10-09T21:35:51.593Z,23.90
2022-10-09T21:38:19.440Z,24.90
2022-10-09T21:40:46.460Z,25.00
2022-10-09T21:43:13.317Z,26.00
2022-10-09T21:45:40.250Z,26.80
2022-10-09T21:48:07.154Z,27.70
2022-10-09T21:50:34.071Z,29.20
2022-10-09T21:53:00.602Z,29.20
2022-10-09T21:55:27.197Z,30.10
2022-10-09T21:57:53.762Z,31.20
2022-10-09T22:00:20.404Z,31.70
2022-10-09T22:02:47.077Z,31.50
2022-10-09T22:05:13.696Z,32.20
2022-10-09T22:07:40.200Z,33.50
2022-10-09T22:10:07.401Z,34.40
2022-10-09T22:12:34.149Z,35.80
2022-10-09T22:15:00.681Z,36.40
2022-10-09T22:17:27.216Z,36.80
2022-10-09T22:19:53.722Z,34.70
2022-10-09T22:22:20.317Z,36.20
2022-10-09T22:24:46.836Z,36.60
2022-10-09T22:27:13.393Z,38.40
2022-10-09T22:29:40.001Z,39.80
2022-10-09T22:32:06.728Z,39.80
2022-10-09T22:34:33.220Z,40.70
2022-10-09T22:36:59.773Z,41.00
2022-10-09T22:39:26.466Z,41.00
2022-10-09T22:41:53.008Z,41.60
2022-10-09T22:44:19.569Z,42.60
2022-10-09T22:46:46.702Z,43.10
2022-10-09T22:49:14.443Z,43.40
2022-10-09T22:51:41.278Z,42.80
2022-10-09T22:54:07.955Z,42.90
2022-10-09T22:56:38.871Z,42.40
2022-10-09T22:59:06.738Z,42.00
2022-10-09T23:01:38.495Z,41.00
2022-10-09T23:04:06.282Z,42.10
2022-10-09T23:06:32.863Z,43.00
2022-10-09T23:09:00.201Z,43.80
2022-10-09T23:11:26.805Z,43.40
2022-10-09T23:13:58.315Z,43.50
2022-10-09T23:16:25.442Z,44.10
2022-10-09T23:18:51.996Z,45.40
2022-10-09T23:21:19.737Z,46.30
2022-10-09T23:23:46.784Z,47.00
2022-10-09T23:26:14.715Z,47.70
2022-10-09T23:28:41.407Z,48.00
2022-10-09T23:31:12.559Z,48.90
2022-10-09T23:33:40.011Z,50.10
2022-10-09T23:36:07.150Z,50.10
2022-10-09T23:38:34.125Z,50.10
2022-10-09T23:41:01.850Z,50.10
2022-10-09T23:43:29.387Z,50.10
2022-10-09T23:45:56.661Z,50.10
2022-10-09T23:48:23.202Z,50.00
2022-10-09T23:50:50.126Z,50.00
2022-10-09T23:53:16.842Z,49.90
2022-10-09T23:55:44.197Z,49.90
2022-10-09T23:58:10.917Z,51.40
